sensor_id;sensor_type;location;lat;lon;timestamp;P1;durP1;ratioP1;P2;durP2;ratioP2
58354;SDS011;44160;49.080;19.302;2023-02-28T00:00:03;45.45;;;19.25;;
58354;SDS011;44160;49.080;19.302;2023-02-28T00:02:39;49.13;;;19.27;;
58354;SDS011;44160;49.080;19.302;2023-02-28T00:05:06;43.53;;;17.00;;
58354;SDS011;44160;49.080;19.302;2023-02-28T00:07:33;39.03;;;18.05;;
58354;SDS011;44160;49.080;19.302;2023-02-28T00:09:59;38.67;;;15.65;;
58354;SDS011;44160;49.080;19.302;2023-02-28T00:12:26;42.20;;;16.10;;
58354;SDS011;44160;49.080;19.302;2023-02-28T00:14:52;36.28;;;14.55;;
58354;SDS011;44160;49.080;19.302;2023-02-28T00:17:19;39.75;;;15.15;;
58354;SDS011;44160;49.080;19.302;2023-02-28T00:19:48;37.55;;;16.23;;
58354;SDS011;44160;49.080;19.302;2023-02-28T00:22:15;40.42;;;15.05;;
58354;SDS011;44160;49.080;19.302;2023-02-28T00:24:41;35.28;;;16.55;;
58354;SDS011;44160;49.080;19.302;2023-02-28T00:27:07;40.33;;;17.10;;
58354;SDS011;44160;49.080;19.302;2023-02-28T00:29:33;37.85;;;16.80;;
58354;SDS011;44160;49.080;19.302;2023-02-28T00:32:00;41.35;;;17.00;;
58354;SDS011;44160;49.080;19.302;2023-02-28T00:34:26;39.50;;;18.02;;
58354;SDS011;44160;49.080;19.302;2023-02-28T00:36:52;40.03;;;17.90;;
58354;SDS011;44160;49.080;19.302;2023-02-28T00:39:18;32.53;;;15.27;;
58354;SDS011;44160;49.080;19.302;2023-02-28T00:41:44;34.05;;;15.85;;
58354;SDS011;44160;49.080;19.302;2023-02-28T00:44:11;39.65;;;17.90;;
58354;SDS011;44160;49.080;19.302;2023-02-28T00:46:38;38.70;;;17.13;;
58354;SDS011;44160;49.080;19.302;2023-02-28T00:49:04;47.50;;;19.23;;
58354;SDS011;44160;49.080;19.302;2023-02-28T00:51:30;56.75;;;22.15;;
58354;SDS011;44160;49.080;19.302;2023-02-28T00:53:56;52.88;;;21.13;;
58354;SDS011;44160;49.080;19.302;2023-02-28T00:56:22;55.40;;;24.38;;
58354;SDS011;44160;49.080;19.302;2023-02-28T00:58:48;46.55;;;20.92;;
58354;SDS011;44160;49.080;19.302;2023-02-28T01:01:14;47.03;;;20.67;;
58354;SDS011;44160;49.080;19.302;2023-02-28T01:03:41;46.30;;;20.90;;
58354;SDS011;44160;49.080;19.302;2023-02-28T01:06:07;50.63;;;21.30;;
58354;SDS011;44160;49.080;19.302;2023-02-28T01:08:33;44.50;;;18.55;;
58354;SDS011;44160;49.080;19.302;2023-02-28T01:11:06;42.92;;;17.75;;
58354;SDS011;44160;49.080;19.302;2023-02-28T01:13:33;50.78;;;17.70;;
58354;SDS011;44160;49.080;19.302;2023-02-28T01:15:59;47.38;;;17.92;;
58354;SDS011;44160;49.080;19.302;2023-02-28T01:18:25;36.60;;;16.00;;
58354;SDS011;44160;49.080;19.302;2023-02-28T01:20:51;37.55;;;14.50;;
58354;SDS011;44160;49.080;19.302;2023-02-28T01:23:19;41.33;;;16.45;;
58354;SDS011;44160;49.080;19.302;2023-02-28T01:25:46;44.85;;;16.77;;
58354;SDS011;44160;49.080;19.302;2023-02-28T01:28:12;41.35;;;17.00;;
58354;SDS011;44160;49.080;19.302;2023-02-28T01:30:38;33.50;;;15.23;;
58354;SDS011;44160;49.080;19.302;2023-02-28T01:33:04;43.38;;;16.58;;
58354;SDS011;44160;49.080;19.302;2023-02-28T01:35:34;38.17;;;15.75;;
58354;SDS011;44160;49.080;19.302;2023-02-28T01:38:00;36.05;;;15.90;;
58354;SDS011;44160;49.080;19.302;2023-02-28T01:40:27;32.85;;;14.32;;
58354;SDS011;44160;49.080;19.302;2023-02-28T01:42:53;28.27;;;12.10;;
58354;SDS011;44160;49.080;19.302;2023-02-28T01:45:26;26.10;;;12.38;;
58354;SDS011;44160;49.080;19.302;2023-02-28T01:48:06;25.65;;;12.50;;
58354;SDS011;44160;49.080;19.302;2023-02-28T01:50:37;35.40;;;15.55;;
58354;SDS011;44160;49.080;19.302;2023-02-28T01:53:05;36.83;;;15.20;;
58354;SDS011;44160;49.080;19.302;2023-02-28T01:55:32;33.53;;;15.93;;
58354;SDS011;44160;49.080;19.302;2023-02-28T01:58:00;28.90;;;12.23;;
58354;SDS011;44160;49.080;19.302;2023-02-28T02:00:27;31.08;;;13.88;;
58354;SDS011;44160;49.080;19.302;2023-02-28T02:02:56;37.25;;;16.67;;
58354;SDS011;44160;49.080;19.302;2023-02-28T02:05:24;36.83;;;15.82;;
58354;SDS011;44160;49.080;19.302;2023-02-28T02:07:52;37.63;;;17.52;;
58354;SDS011;44160;49.080;19.302;2023-02-28T02:10:30;40.85;;;18.75;;
58354;SDS011;44160;49.080;19.302;2023-02-28T02:15:34;31.42;;;14.82;;
58354;SDS011;44160;49.080;19.302;2023-02-28T02:23:39;40.03;;;16.13;;
58354;SDS011;44160;49.080;19.302;2023-02-28T02:36:55;32.10;;;13.63;;
58354;SDS011;44160;49.080;19.302;2023-02-28T02:42:15;26.88;;;12.00;;
58354;SDS011;44160;49.080;19.302;2023-02-28T02:44:45;22.90;;;10.07;;
58354;SDS011;44160;49.080;19.302;2023-02-28T02:47:18;21.70;;;9.23;;
58354;SDS011;44160;49.080;19.302;2023-02-28T02:49:46;15.15;;;7.50;;
58354;SDS011;44160;49.080;19.302;2023-02-28T02:52:14;14.30;;;7.22;;
58354;SDS011;44160;49.080;19.302;2023-02-28T02:54:42;17.23;;;8.02;;
58354;SDS011;44160;49.080;19.302;2023-02-28T02:57:11;26.08;;;12.43;;
58354;SDS011;44160;49.080;19.302;2023-02-28T02:59:38;18.33;;;7.60;;
58354;SDS011;44160;49.080;19.302;2023-02-28T03:02:06;15.27;;;7.75;;
58354;SDS011;44160;49.080;19.302;2023-02-28T03:05:08;14.45;;;7.60;;
58354;SDS011;44160;49.080;19.302;2023-02-28T03:07:26;20.92;;;10.20;;
58354;SDS011;44160;49.080;19.302;2023-02-28T03:09:53;29.40;;;12.48;;
58354;SDS011;44160;49.080;19.302;2023-02-28T03:12:19;18.80;;;9.77;;
58354;SDS011;44160;49.080;19.302;2023-02-28T03:14:51;18.85;;;9.23;;
58354;SDS011;44160;49.080;19.302;2023-02-28T03:27:40;18.85;;;8.32;;
58354;SDS011;44160;49.080;19.302;2023-02-28T03:30:42;18.73;;;8.50;;
58354;SDS011;44160;49.080;19.302;2023-02-28T03:35:33;21.65;;;6.50;;
58354;SDS011;44160;49.080;19.302;2023-02-28T03:38:01;15.70;;;7.35;;
58354;SDS011;44160;49.080;19.302;2023-02-28T03:40:30;16.67;;;8.85;;
58354;SDS011;44160;49.080;19.302;2023-02-28T03:42:59;19.42;;;8.40;;
58354;SDS011;44160;49.080;19.302;2023-02-28T03:45:27;19.33;;;8.13;;
58354;SDS011;44160;49.080;19.302;2023-02-28T03:48:02;27.95;;;9.15;;
58354;SDS011;44160;49.080;19.302;2023-02-28T03:50:34;16.52;;;7.00;;
58354;SDS011;44160;49.080;19.302;2023-02-28T03:55:30;32.88;;;17.85;;
58354;SDS011;44160;49.080;19.302;2023-02-28T03:58:01;15.63;;;7.25;;
58354;SDS011;44160;49.080;19.302;2023-02-28T04:00:40;20.17;;;7.32;;
58354;SDS011;44160;49.080;19.302;2023-02-28T04:03:09;15.23;;;7.82;;
58354;SDS011;44160;49.080;19.302;2023-02-28T04:05:44;17.65;;;8.38;;
58354;SDS011;44160;49.080;19.302;2023-02-28T04:08:12;21.95;;;7.93;;
58354;SDS011;44160;49.080;19.302;2023-02-28T04:10:38;75.03;;;38.00;;
58354;SDS011;44160;49.080;19.302;2023-02-28T04:13:04;46.83;;;23.85;;
58354;SDS011;44160;49.080;19.302;2023-02-28T04:15:33;29.95;;;15.57;;
58354;SDS011;44160;49.080;19.302;2023-02-28T04:17:59;16.70;;;9.05;;
58354;SDS011;44160;49.080;19.302;2023-02-28T04:20:27;16.00;;;8.65;;
58354;SDS011;44160;49.080;19.302;2023-02-28T04:22:53;19.40;;;9.38;;
58354;SDS011;44160;49.080;19.302;2023-02-28T04:25:19;27.95;;;14.10;;
58354;SDS011;44160;49.080;19.302;2023-02-28T04:27:46;18.23;;;9.52;;
58354;SDS011;44160;49.080;19.302;2023-02-28T04:30:12;29.35;;;14.43;;
58354;SDS011;44160;49.080;19.302;2023-02-28T04:32:38;23.20;;;10.65;;
58354;SDS011;44160;49.080;19.302;2023-02-28T04:35:06;20.05;;;9.65;;
58354;SDS011;44160;49.080;19.302;2023-02-28T04:37:32;21.30;;;9.63;;
58354;SDS011;44160;49.080;19.302;2023-02-28T04:40:00;14.98;;;8.23;;
58354;SDS011;44160;49.080;19.302;2023-02-28T04:42:26;18.13;;;8.75;;
58354;SDS011;44160;49.080;19.302;2023-02-28T04:44:52;21.15;;;10.10;;
58354;SDS011;44160;49.080;19.302;2023-02-28T04:47:18;24.55;;;11.80;;
58354;SDS011;44160;49.080;19.302;2023-02-28T04:49:45;29.30;;;13.25;;
58354;SDS011;44160;49.080;19.302;2023-02-28T04:52:11;30.45;;;12.75;;
58354;SDS011;44160;49.080;19.302;2023-02-28T04:54:38;33.88;;;14.07;;
58354;SDS011;44160;49.080;19.302;2023-02-28T04:57:04;35.08;;;15.68;;
58354;SDS011;44160;49.080;19.302;2023-02-28T04:59:30;42.88;;;17.55;;
58354;SDS011;44160;49.080;19.302;2023-02-28T05:01:57;44.03;;;17.25;;
58354;SDS011;44160;49.080;19.302;2023-02-28T05:04:23;47.55;;;17.10;;
58354;SDS011;44160;49.080;19.302;2023-02-28T05:06:49;46.70;;;18.63;;
58354;SDS011;44160;49.080;19.302;2023-02-28T05:09:15;39.75;;;17.45;;
58354;SDS011;44160;49.080;19.302;2023-02-28T05:11:42;40.17;;;17.13;;
58354;SDS011;44160;49.080;19.302;2023-02-28T05:14:12;38.45;;;16.42;;
58354;SDS011;44160;49.080;19.302;2023-02-28T05:16:38;38.08;;;16.08;;
58354;SDS011;44160;49.080;19.302;2023-02-28T05:19:05;42.15;;;16.17;;
58354;SDS011;44160;49.080;19.302;2023-02-28T05:21:32;36.05;;;16.00;;
58354;SDS011;44160;49.080;19.302;2023-02-28T05:24:03;42.55;;;17.23;;
58354;SDS011;44160;49.080;19.302;2023-02-28T05:26:30;38.63;;;16.23;;
58354;SDS011;44160;49.080;19.302;2023-02-28T05:28:56;39.70;;;16.10;;
58354;SDS011;44160;49.080;19.302;2023-02-28T05:31:22;41.63;;;17.83;;
58354;SDS011;44160;49.080;19.302;2023-02-28T05:33:48;38.15;;;17.17;;
58354;SDS011;44160;49.080;19.302;2023-02-28T05:36:14;34.10;;;16.40;;
58354;SDS011;44160;49.080;19.302;2023-02-28T05:38:45;37.70;;;16.55;;
58354;SDS011;44160;49.080;19.302;2023-02-28T05:41:11;34.50;;;14.65;;
58354;SDS011;44160;49.080;19.302;2023-02-28T05:43:37;39.83;;;16.60;;
58354;SDS011;44160;49.080;19.302;2023-02-28T05:46:07;38.47;;;15.90;;
58354;SDS011;44160;49.080;19.302;2023-02-28T05:48:35;40.50;;;17.83;;
58354;SDS011;44160;49.080;19.302;2023-02-28T05:51:01;41.85;;;17.00;;
58354;SDS011;44160;49.080;19.302;2023-02-28T05:53:34;34.97;;;17.08;;
58354;SDS011;44160;49.080;19.302;2023-02-28T05:56:00;40.90;;;18.35;;
58354;SDS011;44160;49.080;19.302;2023-02-28T05:58:27;44.30;;;19.45;;
58354;SDS011;44160;49.080;19.302;2023-02-28T06:00:56;42.53;;;18.70;;
58354;SDS011;44160;49.080;19.302;2023-02-28T06:03:29;49.35;;;19.52;;
58354;SDS011;44160;49.080;19.302;2023-02-28T06:05:56;45.03;;;20.13;;
58354;SDS011;44160;49.080;19.302;2023-02-28T06:08:25;54.78;;;21.67;;
58354;SDS011;44160;49.080;19.302;2023-02-28T06:10:54;50.47;;;24.85;;
58354;SDS011;44160;49.080;19.302;2023-02-28T06:13:21;47.38;;;21.25;;
58354;SDS011;44160;49.080;19.302;2023-02-28T06:15:55;45.25;;;19.02;;
58354;SDS011;44160;49.080;19.302;2023-02-28T06:18:21;56.70;;;23.73;;
58354;SDS011;44160;49.080;19.302;2023-02-28T06:20:54;51.75;;;26.33;;
58354;SDS011;44160;49.080;19.302;2023-02-28T06:23:21;46.25;;;26.25;;
58354;SDS011;44160;49.080;19.302;2023-02-28T06:25:47;49.05;;;24.73;;
58354;SDS011;44160;49.080;19.302;2023-02-28T06:28:14;48.40;;;24.92;;
58354;SDS011;44160;49.080;19.302;2023-02-28T06:30:40;50.97;;;22.58;;
58354;SDS011;44160;49.080;19.302;2023-02-28T06:33:06;69.47;;;23.42;;
58354;SDS011;44160;49.080;19.302;2023-02-28T06:35:36;71.13;;;25.55;;
58354;SDS011;44160;49.080;19.302;2023-02-28T06:38:03;91.90;;;24.83;;
58354;SDS011;44160;49.080;19.302;2023-02-28T06:40:29;80.28;;;25.85;;
58354;SDS011;44160;49.080;19.302;2023-02-28T06:42:59;58.25;;;28.20;;
58354;SDS011;44160;49.080;19.302;2023-02-28T06:45:26;51.45;;;22.85;;
58354;SDS011;44160;49.080;19.302;2023-02-28T06:47:52;41.30;;;18.83;;
58354;SDS011;44160;49.080;19.302;2023-02-28T06:50:19;36.60;;;16.48;;
58354;SDS011;44160;49.080;19.302;2023-02-28T06:52:48;58.40;;;25.17;;
58354;SDS011;44160;49.080;19.302;2023-02-28T06:55:18;27.73;;;15.23;;
58354;SDS011;44160;49.080;19.302;2023-02-28T06:57:50;31.40;;;15.80;;
58354;SDS011;44160;49.080;19.302;2023-02-28T07:00:16;192.27;;;85.93;;
58354;SDS011;44160;49.080;19.302;2023-02-28T07:03:03;35.53;;;20.17;;
58354;SDS011;44160;49.080;19.302;2023-02-28T07:08:19;29.42;;;14.55;;
58354;SDS011;44160;49.080;19.302;2023-02-28T07:11:19;46.58;;;23.85;;
58354;SDS011;44160;49.080;19.302;2023-02-28T07:13:54;27.70;;;15.50;;
58354;SDS011;44160;49.080;19.302;2023-02-28T07:16:29;25.92;;;15.15;;
58354;SDS011;44160;49.080;19.302;2023-02-28T07:18:56;26.27;;;15.07;;
58354;SDS011;44160;49.080;19.302;2023-02-28T07:21:33;27.50;;;14.07;;
58354;SDS011;44160;49.080;19.302;2023-02-28T07:23:59;29.83;;;13.77;;
58354;SDS011;44160;49.080;19.302;2023-02-28T07:26:25;25.63;;;13.68;;
58354;SDS011;44160;49.080;19.302;2023-02-28T07:28:51;28.67;;;14.05;;
58354;SDS011;44160;49.080;19.302;2023-02-28T07:31:18;24.42;;;13.75;;
58354;SDS011;44160;49.080;19.302;2023-02-28T07:33:47;23.10;;;13.75;;
58354;SDS011;44160;49.080;19.302;2023-02-28T07:36:14;22.33;;;13.07;;
58354;SDS011;44160;49.080;19.302;2023-02-28T07:38:44;27.85;;;14.35;;
58354;SDS011;44160;49.080;19.302;2023-02-28T07:41:20;27.45;;;13.23;;
58354;SDS011;44160;49.080;19.302;2023-02-28T07:43:59;20.35;;;11.80;;
58354;SDS011;44160;49.080;19.302;2023-02-28T07:46:31;32.58;;;11.75;;
58354;SDS011;44160;49.080;19.302;2023-02-28T07:49:22;11.68;;;6.88;;
58354;SDS011;44160;49.080;19.302;2023-02-28T07:51:53;14.52;;;8.65;;
58354;SDS011;44160;49.080;19.302;2023-02-28T07:54:28;14.82;;;7.35;;
58354;SDS011;44160;49.080;19.302;2023-02-28T07:56:54;10.52;;;6.60;;
58354;SDS011;44160;49.080;19.302;2023-02-28T07:59:20;22.23;;;12.90;;
58354;SDS011;44160;49.080;19.302;2023-02-28T08:01:47;12.27;;;6.90;;
58354;SDS011;44160;49.080;19.302;2023-02-28T08:04:18;13.25;;;6.78;;
58354;SDS011;44160;49.080;19.302;2023-02-28T08:06:44;9.88;;;6.10;;
58354;SDS011;44160;49.080;19.302;2023-02-28T08:09:10;11.43;;;6.70;;
58354;SDS011;44160;49.080;19.302;2023-02-28T08:11:36;13.13;;;6.95;;
58354;SDS011;44160;49.080;19.302;2023-02-28T08:14:03;11.07;;;6.50;;
58354;SDS011;44160;49.080;19.302;2023-02-28T08:16:32;12.05;;;7.55;;
58354;SDS011;44160;49.080;19.302;2023-02-28T08:18:58;12.52;;;6.47;;
58354;SDS011;44160;49.080;19.302;2023-02-28T08:21:24;9.38;;;6.50;;
58354;SDS011;44160;49.080;19.302;2023-02-28T08:23:50;10.27;;;6.65;;
58354;SDS011;44160;49.080;19.302;2023-02-28T08:26:21;12.88;;;7.63;;
58354;SDS011;44160;49.080;19.302;2023-02-28T08:28:48;22.52;;;12.90;;
58354;SDS011;44160;49.080;19.302;2023-02-28T08:31:14;16.33;;;8.70;;
58354;SDS011;44160;49.080;19.302;2023-02-28T08:33:41;16.33;;;9.93;;
58354;SDS011;44160;49.080;19.302;2023-02-28T08:36:09;10.27;;;7.00;;
58354;SDS011;44160;49.080;19.302;2023-02-28T08:38:38;10.82;;;6.22;;
58354;SDS011;44160;49.080;19.302;2023-02-28T08:41:09;15.60;;;6.90;;
58354;SDS011;44160;49.080;19.302;2023-02-28T08:43:35;10.10;;;6.82;;
58354;SDS011;44160;49.080;19.302;2023-02-28T08:46:02;12.32;;;6.93;;
58354;SDS011;44160;49.080;19.302;2023-02-28T08:48:29;15.18;;;7.15;;
58354;SDS011;44160;49.080;19.302;2023-02-28T08:50:57;10.55;;;6.40;;
58354;SDS011;44160;49.080;19.302;2023-02-28T08:53:23;11.25;;;7.00;;
58354;SDS011;44160;49.080;19.302;2023-02-28T08:55:59;10.73;;;6.82;;
58354;SDS011;44160;49.080;19.302;2023-02-28T08:58:29;10.68;;;6.30;;
58354;SDS011;44160;49.080;19.302;2023-02-28T09:00:58;13.20;;;8.55;;
58354;SDS011;44160;49.080;19.302;2023-02-28T09:03:24;14.32;;;7.00;;
58354;SDS011;44160;49.080;19.302;2023-02-28T09:05:59;14.88;;;6.80;;
58354;SDS011;44160;49.080;19.302;2023-02-28T09:08:33;13.10;;;6.68;;
58354;SDS011;44160;49.080;19.302;2023-02-28T09:11:00;12.52;;;6.72;;
58354;SDS011;44160;49.080;19.302;2023-02-28T09:13:27;12.43;;;7.07;;
58354;SDS011;44160;49.080;19.302;2023-02-28T09:16:00;10.57;;;6.25;;
58354;SDS011;44160;49.080;19.302;2023-02-28T09:18:26;12.73;;;6.35;;
58354;SDS011;44160;49.080;19.302;2023-02-28T09:20:52;10.75;;;6.25;;
58354;SDS011;44160;49.080;19.302;2023-02-28T09:23:18;14.32;;;7.18;;
58354;SDS011;44160;49.080;19.302;2023-02-28T09:25:49;11.73;;;7.50;;
58354;SDS011;44160;49.080;19.302;2023-02-28T09:28:16;12.50;;;6.80;;
58354;SDS011;44160;49.080;19.302;2023-02-28T09:30:44;14.77;;;7.85;;
58354;SDS011;44160;49.080;19.302;2023-02-28T09:33:10;15.60;;;7.38;;
58354;SDS011;44160;49.080;19.302;2023-02-28T09:35:36;11.02;;;7.32;;
58354;SDS011;44160;49.080;19.302;2023-02-28T09:38:03;11.32;;;7.38;;
58354;SDS011;44160;49.080;19.302;2023-02-28T09:40:29;16.15;;;7.43;;
58354;SDS011;44160;49.080;19.302;2023-02-28T09:42:56;11.50;;;7.32;;
58354;SDS011;44160;49.080;19.302;2023-02-28T09:45:30;11.07;;;7.40;;
58354;SDS011;44160;49.080;19.302;2023-02-28T09:48:44;16.80;;;7.40;;
58354;SDS011;44160;49.080;19.302;2023-02-28T09:53:40;15.43;;;7.85;;
58354;SDS011;44160;49.080;19.302;2023-02-28T09:56:07;15.32;;;7.00;;
58354;SDS011;44160;49.080;19.302;2023-02-28T10:06:53;13.10;;;7.32;;
58354;SDS011;44160;49.080;19.302;2023-02-28T10:09:20;14.70;;;9.55;;
58354;SDS011;44160;49.080;19.302;2023-02-28T10:11:54;12.93;;;7.00;;
58354;SDS011;44160;49.080;19.302;2023-02-28T10:14:23;12.73;;;6.88;;
58354;SDS011;44160;49.080;19.302;2023-02-28T10:17:12;12.13;;;7.13;;
58354;SDS011;44160;49.080;19.302;2023-02-28T10:19:44;15.07;;;8.13;;
58354;SDS011;44160;49.080;19.302;2023-02-28T10:22:22;13.57;;;7.28;;
58354;SDS011;44160;49.080;19.302;2023-02-28T10:24:53;11.18;;;7.50;;
58354;SDS011;44160;49.080;19.302;2023-02-28T10:27:22;11.27;;;6.47;;
58354;SDS011;44160;49.080;19.302;2023-02-28T10:29:53;10.95;;;6.93;;
58354;SDS011;44160;49.080;19.302;2023-02-28T10:32:21;10.23;;;6.88;;
58354;SDS011;44160;49.080;19.302;2023-02-28T10:37:45;32.85;;;18.33;;
58354;SDS011;44160;49.080;19.302;2023-02-28T10:43:05;8.27;;;5.32;;
58354;SDS011;44160;49.080;19.302;2023-02-28T11:01:37;7.97;;;4.97;;
58354;SDS011;44160;49.080;19.302;2023-02-28T11:06:56;10.18;;;6.10;;
58354;SDS011;44160;49.080;19.302;2023-02-28T11:09:25;7.38;;;5.53;;
58354;SDS011;44160;49.080;19.302;2023-02-28T11:12:00;9.32;;;4.70;;
58354;SDS011;44160;49.080;19.302;2023-02-28T11:14:31;8.13;;;4.93;;
58354;SDS011;44160;49.080;19.302;2023-02-28T11:17:02;7.53;;;5.13;;
58354;SDS011;44160;49.080;19.302;2023-02-28T11:19:38;8.13;;;5.05;;
58354;SDS011;44160;49.080;19.302;2023-02-28T11:22:06;5.65;;;4.75;;
58354;SDS011;44160;49.080;19.302;2023-02-28T11:24:43;8.02;;;5.07;;
58354;SDS011;44160;49.080;19.302;2023-02-28T11:27:25;12.18;;;7.65;;
58354;SDS011;44160;49.080;19.302;2023-02-28T11:29:52;7.28;;;5.10;;
58354;SDS011;44160;49.080;19.302;2023-02-28T11:32:23;7.72;;;4.90;;
58354;SDS011;44160;49.080;19.302;2023-02-28T11:37:32;8.18;;;4.95;;
58354;SDS011;44160;49.080;19.302;2023-02-28T11:40:02;8.82;;;6.18;;
58354;SDS011;44160;49.080;19.302;2023-02-28T11:45:01;7.63;;;5.30;;
58354;SDS011;44160;49.080;19.302;2023-02-28T11:53:01;29.83;;;17.20;;
58354;SDS011;44160;49.080;19.302;2023-02-28T11:58:33;11.95;;;5.82;;
58354;SDS011;44160;49.080;19.302;2023-02-28T12:06:57;20.92;;;10.00;;
58354;SDS011;44160;49.080;19.302;2023-02-28T12:09:47;9.00;;;5.82;;
58354;SDS011;44160;49.080;19.302;2023-02-28T12:23:31;10.85;;;6.20;;
58354;SDS011;44160;49.080;19.302;2023-02-28T12:29:19;10.82;;;5.72;;
58354;SDS011;44160;49.080;19.302;2023-02-28T12:32:00;12.52;;;6.38;;
58354;SDS011;44160;49.080;19.302;2023-02-28T12:34:39;12.43;;;6.25;;
58354;SDS011;44160;49.080;19.302;2023-02-28T12:37:17;11.43;;;6.93;;
58354;SDS011;44160;49.080;19.302;2023-02-28T12:39:50;11.20;;;6.68;;
58354;SDS011;44160;49.080;19.302;2023-02-28T12:44:54;11.82;;;7.30;;
58354;SDS011;44160;49.080;19.302;2023-02-28T12:47:22;22.52;;;13.43;;
58354;SDS011;44160;49.080;19.302;2023-02-28T12:49:50;12.13;;;7.45;;
58354;SDS011;44160;49.080;19.302;2023-02-28T12:52:25;10.15;;;5.97;;
58354;SDS011;44160;49.080;19.302;2023-02-28T12:55:03;8.18;;;5.50;;
58354;SDS011;44160;49.080;19.302;2023-02-28T12:57:41;9.38;;;5.43;;
58354;SDS011;44160;49.080;19.302;2023-02-28T13:00:14;12.30;;;5.90;;
58354;SDS011;44160;49.080;19.302;2023-02-28T13:05:37;11.15;;;5.65;;
58354;SDS011;44160;49.080;19.302;2023-02-28T13:10:39;16.25;;;8.15;;
58354;SDS011;44160;49.080;19.302;2023-02-28T13:13:11;12.45;;;5.82;;
58354;SDS011;44160;49.080;19.302;2023-02-28T13:16:09;10.93;;;5.88;;
58354;SDS011;44160;49.080;19.302;2023-02-28T13:18:37;10.73;;;6.05;;
58354;SDS011;44160;49.080;19.302;2023-02-28T13:21:05;14.85;;;7.53;;
58354;SDS011;44160;49.080;19.302;2023-02-28T13:23:40;15.90;;;7.15;;
58354;SDS011;44160;49.080;19.302;2023-02-28T13:26:07;8.63;;;5.40;;
58354;SDS011;44160;49.080;19.302;2023-02-28T13:31:22;9.40;;;5.43;;
58354;SDS011;44160;49.080;19.302;2023-02-28T13:36:35;10.73;;;5.90;;
58354;SDS011;44160;49.080;19.302;2023-02-28T13:39:02;10.23;;;5.40;;
58354;SDS011;44160;49.080;19.302;2023-02-28T13:47:22;9.90;;;5.93;;
58354;SDS011;44160;49.080;19.302;2023-02-28T13:52:06;12.35;;;6.57;;
58354;SDS011;44160;49.080;19.302;2023-02-28T13:57:17;10.50;;;5.13;;
58354;SDS011;44160;49.080;19.302;2023-02-28T14:05:24;11.10;;;5.95;;
58354;SDS011;44160;49.080;19.302;2023-02-28T14:07:59;12.18;;;6.47;;
58354;SDS011;44160;49.080;19.302;2023-02-28T14:10:34;50.88;;;26.27;;
58354;SDS011;44160;49.080;19.302;2023-02-28T14:15:55;11.88;;;5.65;;
58354;SDS011;44160;49.080;19.302;2023-02-28T14:18:34;10.75;;;5.68;;
58354;SDS011;44160;49.080;19.302;2023-02-28T14:21:21;13.70;;;7.65;;
58354;SDS011;44160;49.080;19.302;2023-02-28T14:37:23;14.30;;;6.10;;
58354;SDS011;44160;49.080;19.302;2023-02-28T14:40:02;14.63;;;7.53;;
58354;SDS011;44160;49.080;19.302;2023-02-28T14:42:30;11.35;;;6.18;;
58354;SDS011;44160;49.080;19.302;2023-02-28T15:02:38;26.83;;;13.65;;
58354;SDS011;44160;49.080;19.302;2023-02-28T15:08:24;33.03;;;13.88;;
58354;SDS011;44160;49.080;19.302;2023-02-28T15:16:19;15.23;;;8.27;;
58354;SDS011;44160;49.080;19.302;2023-02-28T15:18:56;14.90;;;8.68;;
58354;SDS011;44160;49.080;19.302;2023-02-28T15:21:36;17.17;;;6.55;;
58354;SDS011;44160;49.080;19.302;2023-02-28T15:27:04;15.38;;;8.13;;
58354;SDS011;44160;49.080;19.302;2023-02-28T15:29:44;12.93;;;6.22;;
58354;SDS011;44160;49.080;19.302;2023-02-28T15:38:21;17.33;;;8.98;;
58354;SDS011;44160;49.080;19.302;2023-02-28T15:41:00;21.90;;;8.32;;
58354;SDS011;44160;49.080;19.302;2023-02-28T15:48:28;18.05;;;8.07;;
58354;SDS011;44160;49.080;19.302;2023-02-28T15:51:02;16.43;;;6.80;;
58354;SDS011;44160;49.080;19.302;2023-02-28T15:53:32;21.50;;;7.65;;
58354;SDS011;44160;49.080;19.302;2023-02-28T15:56:01;18.48;;;9.05;;
58354;SDS011;44160;49.080;19.302;2023-02-28T15:58:34;17.27;;;8.85;;
58354;SDS011;44160;49.080;19.302;2023-02-28T16:01:08;28.60;;;11.00;;
58354;SDS011;44160;49.080;19.302;2023-02-28T16:03:54;35.90;;;17.70;;
58354;SDS011;44160;49.080;19.302;2023-02-28T16:06:33;20.20;;;11.85;;
58354;SDS011;44160;49.080;19.302;2023-02-28T16:08:59;16.77;;;8.73;;
58354;SDS011;44160;49.080;19.302;2023-02-28T16:11:38;21.13;;;9.88;;
58354;SDS011;44160;49.080;19.302;2023-02-28T16:14:06;28.90;;;10.50;;
58354;SDS011;44160;49.080;19.302;2023-02-28T16:16:32;18.35;;;9.73;;
58354;SDS011;44160;49.080;19.302;2023-02-28T16:19:01;15.40;;;9.23;;
58354;SDS011;44160;49.080;19.302;2023-02-28T16:21:37;15.55;;;7.93;;
58354;SDS011;44160;49.080;19.302;2023-02-28T16:24:04;17.50;;;9.10;;
58354;SDS011;44160;49.080;19.302;2023-02-28T16:26:42;14.77;;;7.93;;
58354;SDS011;44160;49.080;19.302;2023-02-28T16:29:32;19.60;;;9.90;;
58354;SDS011;44160;49.080;19.302;2023-02-28T16:32:07;21.85;;;10.00;;
58354;SDS011;44160;49.080;19.302;2023-02-28T16:35:00;26.02;;;10.57;;
58354;SDS011;44160;49.080;19.302;2023-02-28T16:37:31;23.42;;;11.85;;
58354;SDS011;44160;49.080;19.302;2023-02-28T16:43:22;26.17;;;13.15;;
58354;SDS011;44160;49.080;19.302;2023-02-28T16:45:58;20.70;;;10.10;;
58354;SDS011;44160;49.080;19.302;2023-02-28T16:48:31;17.55;;;8.80;;
58354;SDS011;44160;49.080;19.302;2023-02-28T16:50:58;17.48;;;8.90;;
58354;SDS011;44160;49.080;19.302;2023-02-28T16:53:24;14.27;;;7.70;;
58354;SDS011;44160;49.080;19.302;2023-02-28T16:55:53;29.85;;;16.33;;
58354;SDS011;44160;49.080;19.302;2023-02-28T16:58:27;32.55;;;14.82;;
58354;SDS011;44160;49.080;19.302;2023-02-28T17:04:00;22.00;;;10.05;;
58354;SDS011;44160;49.080;19.302;2023-02-28T17:06:34;20.73;;;10.65;;
58354;SDS011;44160;49.080;19.302;2023-02-28T17:12:00;20.50;;;11.18;;
58354;SDS011;44160;49.080;19.302;2023-02-28T17:15:15;28.38;;;11.75;;
58354;SDS011;44160;49.080;19.302;2023-02-28T17:17:45;21.00;;;10.43;;
58354;SDS011;44160;49.080;19.302;2023-02-28T17:20:20;20.73;;;10.73;;
58354;SDS011;44160;49.080;19.302;2023-02-28T17:22:54;21.02;;;11.95;;
58354;SDS011;44160;49.080;19.302;2023-02-28T17:25:21;27.83;;;13.93;;
58354;SDS011;44160;49.080;19.302;2023-02-28T17:27:50;25.52;;;13.68;;
58354;SDS011;44160;49.080;19.302;2023-02-28T17:32:44;32.17;;;11.93;;
58354;SDS011;44160;49.080;19.302;2023-02-28T17:35:13;28.60;;;11.93;;
58354;SDS011;44160;49.080;19.302;2023-02-28T17:40:20;22.55;;;9.65;;
58354;SDS011;44160;49.080;19.302;2023-02-28T17:42:54;22.48;;;11.43;;
58354;SDS011;44160;49.080;19.302;2023-02-28T17:45:22;20.20;;;11.73;;
58354;SDS011;44160;49.080;19.302;2023-02-28T17:48:02;21.50;;;10.35;;
58354;SDS011;44160;49.080;19.302;2023-02-28T17:50:34;36.35;;;17.45;;
58354;SDS011;44160;49.080;19.302;2023-02-28T17:53:02;27.17;;;13.30;;
58354;SDS011;44160;49.080;19.302;2023-02-28T17:55:28;32.90;;;12.68;;
58354;SDS011;44160;49.080;19.302;2023-02-28T17:57:54;26.67;;;12.75;;
58354;SDS011;44160;49.080;19.302;2023-02-28T18:00:21;28.45;;;13.93;;
58354;SDS011;44160;49.080;19.302;2023-02-28T18:06:13;24.15;;;13.20;;